createdAt,value
2023-10-07T00:01:08.896Z,33.89
2023-10-07T00:03:39.732Z,34.02
2023-10-07T00:06:11.938Z,34.04
2023-10-07T00:08:40.317Z,33.83
2023-10-07T00:11:13.121Z,33.77
2023-10-07T00:13:43.833Z,33.61
2023-10-07T00:16:18.614Z,33.88
2023-10-07T00:18:49.548Z,33.65
2023-10-07T00:21:28.336Z,33.67
2023-10-07T00:23:58.870Z,33.59
2023-10-07T00:26:28.155Z,33.60
2023-10-07T00:29:02.649Z,33.63
2023-10-07T00:31:35.011Z,33.53
2023-10-07T00:34:15.757Z,33.63
2023-10-07T00:36:43.554Z,33.50
2023-10-07T00:39:21.352Z,33.19
2023-10-07T00:41:51.960Z,33.55
2023-10-07T00:44:24.107Z,33.36
2023-10-07T00:47:04.069Z,33.27
2023-10-07T00:49:42.900Z,33.26
2023-10-07T00:52:14.768Z,33.51
2023-10-07T00:54:48.841Z,33.03
2023-10-07T00:57:34.296Z,33.41
2023-10-07T01:00:27.391Z,33.13
2023-10-07T01:03:13.643Z,33.20
2023-10-07T01:06:00.002Z,33.03
2023-10-07T01:08:37.041Z,33.02
2023-10-07T01:11:16.818Z,33.11
2023-10-07T01:13:51.476Z,32.86
2023-10-07T01:16:29.135Z,32.71
2023-10-07T01:19:11.787Z,32.98
2023-10-07T01:21:57.097Z,32.90
2023-10-07T01:24:39.869Z,33.92
2023-10-07T01:27:43.608Z,33.97
2023-10-07T01:30:17.897Z,34.45
2023-10-07T01:32:58.738Z,34.86
2023-10-07T01:35:33.273Z,34.91
2023-10-07T01:38:01.682Z,34.91
2023-10-07T01:40:45.577Z,34.88
2023-10-07T01:43:13.449Z,34.86
2023-10-07T01:45:43.880Z,35.17
2023-10-07T01:48:11.491Z,35.33
2023-10-07T01:50:42.570Z,35.04
2023-10-07T01:53:18.400Z,34.99
2023-10-07T01:55:47.091Z,35.22
2023-10-07T01:58:16.321Z,35.08
2023-10-07T02:00:45.222Z,35.17
2023-10-07T02:03:24.633Z,35.40
2023-10-07T02:05:53.379Z,35.44
2023-10-07T02:08:23.415Z,35.38
2023-10-07T02:10:58.504Z,35.58
2023-10-07T02:13:31.265Z,35.30
2023-10-07T02:16:07.735Z,35.48
2023-10-07T02:18:36.903Z,35.54
2023-10-07T02:21:11.655Z,35.30
2023-10-07T02:23:44.297Z,35.43
2023-10-07T02:26:20.101Z,35.27
2023-10-07T02:28:54.089Z,35.47
2023-10-07T02:31:24.961Z,35.05
2023-10-07T02:33:53.991Z,34.70
2023-10-07T02:36:33.459Z,34.21
2023-10-07T02:39:20.689Z,34.44
2023-10-07T02:41:48.882Z,34.50
2023-10-07T02:44:27.634Z,34.17
2023-10-07T02:46:58.449Z,34.13
2023-10-07T02:49:27.045Z,35.14
2023-10-07T02:51:59.846Z,34.38
2023-10-07T02:54:42.874Z,33.88
2023-10-07T02:57:23.008Z,33.75
2023-10-07T03:00:01.596Z,33.78
2023-10-07T03:02:50.030Z,33.66
2023-10-07T03:05:30.971Z,33.61
2023-10-07T03:08:07.777Z,33.48
2023-10-07T03:10:45.035Z,33.68
2023-10-07T03:13:17.326Z,33.98
2023-10-07T03:16:08.959Z,34.83
2023-10-07T03:18:39.576Z,35.02
2023-10-07T03:21:13.180Z,35.32
2023-10-07T03:23:49.751Z,35.43
2023-10-07T03:26:21.561Z,35.69
2023-10-07T03:28:57.062Z,35.39
2023-10-07T03:31:48.790Z,35.63
2023-10-07T03:34:16.492Z,35.54
2023-10-07T03:37:10.039Z,35.78
2023-10-07T03:40:06.658Z,35.81
2023-10-07T03:42:34.523Z,35.57
2023-10-07T03:45:02.067Z,36.13
2023-10-07T03:47:33.974Z,36.35
2023-10-07T03:50:05.716Z,33.21
2023-10-07T03:52:36.580Z,33.17
2023-10-07T03:55:04.553Z,34.87
2023-10-07T03:57:34.944Z,34.92
2023-10-07T04:00:02.536Z,35.32
2023-10-07T04:02:42.835Z,35.66
2023-10-07T04:05:11.947Z,36.10
2023-10-07T04:07:40.981Z,31.57
2023-10-07T04:10:14.674Z,29.46
2023-10-07T04:12:42.154Z,29.60
2023-10-07T04:15:14.302Z,30.89
2023-10-07T04:17:44.605Z,32.84
2023-10-07T04:20:25.851Z,31.90
2023-10-07T04:23:01.737Z,32.01
2023-10-07T04:25:33.254Z,31.68
2023-10-07T04:28:07.272Z,31.51
2023-10-07T04:30:48.898Z,31.67
2023-10-07T04:33:20.049Z,31.79
2023-10-07T04:35:51.802Z,31.72
2023-10-07T04:38:42.424Z,32.00
2023-10-07T04:41:25.113Z,31.80
2023-10-07T04:44:00.524Z,32.34
2023-10-07T04:46:43.938Z,31.71
2023-10-07T04:49:14.537Z,31.76
2023-10-07T04:51:42.514Z,31.52
2023-10-07T04:54:12.223Z,31.23
2023-10-07T04:56:48.455Z,31.28
2023-10-07T04:59:18.566Z,31.50
2023-10-07T05:01:57.286Z,31.40
2023-10-07T05:04:26.306Z,32.14
2023-10-07T05:06:55.954Z,32.34
2023-10-07T05:09:24.459Z,32.47
2023-10-07T05:11:52.024Z,32.70
2023-10-07T05:14:19.660Z,32.79
2023-10-07T05:16:48.628Z,32.54
2023-10-07T05:19:24.065Z,32.77
2023-10-07T05:22:12.242Z,32.91
2023-10-07T05:24:39.983Z,32.80
2023-10-07T05:27:07.456Z,32.95
2023-10-07T05:29:37.114Z,32.88
2023-10-07T05:32:04.949Z,32.75
2023-10-07T05:34:34.928Z,32.20
2023-10-07T05:37:05.728Z,32.15
2023-10-07T05:39:34.456Z,32.58
2023-10-07T05:42:04.609Z,31.59
2023-10-07T05:44:33.128Z,31.56
2023-10-07T05:47:04.086Z,31.30
2023-10-07T05:49:32.503Z,31.25
2023-10-07T05:52:00.246Z,31.17
2023-10-07T05:54:29.800Z,31.26
2023-10-07T05:56:57.594Z,31.00
2023-10-07T05:59:26.694Z,31.29
2023-10-07T06:01:54.330Z,31.60
2023-10-07T06:04:22.044Z,31.37
2023-10-07T06:06:51.231Z,31.75
2023-10-07T06:09:19.122Z,31.66
2023-10-07T06:11:49.694Z,31.35
2023-10-07T06:14:19.939Z,31.39
2023-10-07T06:16:47.548Z,31.24
2023-10-07T06:19:14.959Z,31.51
2023-10-07T06:21:52.313Z,31.41
2023-10-07T06:24:23.270Z,31.90
2023-10-07T06:26:54.925Z,31.99
2023-10-07T06:29:22.933Z,31.65
2023-10-07T06:32:14.492Z,31.67
2023-10-07T06:34:46.241Z,31.73
2023-10-07T06:41:36.529Z,31.90
2023-10-07T06:44:05.098Z,31.92
2023-10-07T06:46:43.410Z,32.01
2023-10-07T06:49:20.963Z,32.12
2023-10-07T06:51:54.574Z,31.96
2023-10-07T06:54:24.618Z,31.57
2023-10-07T06:56:55.573Z,31.98
2023-10-07T06:59:29.531Z,31.71
2023-10-07T07:02:12.642Z,31.76
2023-10-07T07:04:42.936Z,31.88
2023-10-07T07:07:12.023Z,31.55
2023-10-07T07:09:51.891Z,31.60
2023-10-07T07:12:24.260Z,31.15
2023-10-07T07:14:52.928Z,32.44
2023-10-07T07:17:31.033Z,31.92
2023-10-07T07:20:08.713Z,32.01
2023-10-07T07:22:40.666Z,31.86
2023-10-07T07:25:13.952Z,32.08
2023-10-07T07:27:49.370Z,32.67
2023-10-07T07:30:21.712Z,33.00
2023-10-07T07:32:58.090Z,32.76
2023-10-07T07:35:40.177Z,32.63
2023-10-07T07:38:24.297Z,32.34
2023-10-07T07:41:08.299Z,32.27
2023-10-07T07:43:38.785Z,32.36
2023-10-07T07:46:18.982Z,32.07
2023-10-07T07:48:47.130Z,31.92
2023-10-07T07:51:18.667Z,31.81
2023-10-07T07:53:46.545Z,31.61
2023-10-07T07:56:14.356Z,31.46
2023-10-07T07:58:53.401Z,31.83
2023-10-07T08:01:24.806Z,32.09
2023-10-07T08:03:57.198Z,31.50
2023-10-07T08:06:27.188Z,31.69
2023-10-07T08:08:56.680Z,32.38
2023-10-07T08:11:24.687Z,31.61
2023-10-07T08:13:54.747Z,32.20
2023-10-07T08:16:22.402Z,32.33
2023-10-07T08:18:51.851Z,32.36
2023-10-07T08:21:19.268Z,32.69
2023-10-07T08:23:47.749Z,32.81
2023-10-07T08:26:21.922Z,32.33
2023-10-07T08:28:55.558Z,31.71
2023-10-07T08:31:39.216Z,32.45
2023-10-07T08:34:08.047Z,32.64
2023-10-07T08:36:40.603Z,31.78
2023-10-07T08:39:10.593Z,32.00
2023-10-07T08:41:51.618Z,32.17
2023-10-07T08:44:22.194Z,32.31
2023-10-07T08:46:50.806Z,32.87
2023-10-07T08:49:26.766Z,33.34
2023-10-07T08:51:56.037Z,33.49
2023-10-07T08:54:46.078Z,33.23
2023-10-07T08:57:20.367Z,33.20
2023-10-07T08:59:53.834Z,33.65
2023-10-07T09:02:28.615Z,33.44
2023-10-07T09:04:59.308Z,33.25
2023-10-07T09:07:37.728Z,33.55
2023-10-07T09:10:18.270Z,33.74
2023-10-07T09:12:51.858Z,34.12
2023-10-07T09:15:27.914Z,34.11
2023-10-07T09:18:05.826Z,33.42
2023-10-07T09:20:37.902Z,33.35
2023-10-07T09:23:16.926Z,33.81
2023-10-07T09:25:53.163Z,33.65
2023-10-07T09:28:37.094Z,33.69
2023-10-07T09:31:09.683Z,33.74
2023-10-07T09:33:43.075Z,33.50
2023-10-07T09:36:25.014Z,33.57
2023-10-07T09:39:12.166Z,33.10
2023-10-07T09:41:40.977Z,33.74
2023-10-07T09:44:21.846Z,33.74
2023-10-07T09:46:54.254Z,33.82
2023-10-07T09:49:29.646Z,33.94
2023-10-07T09:52:16.741Z,34.00
2023-10-07T09:55:24.785Z,36.59
2023-10-07T09:58:25.952Z,38.31
2023-10-07T10:01:06.874Z,38.42
2023-10-07T10:04:13.239Z,38.40
2023-10-07T10:07:23.297Z,38.36
2023-10-07T10:10:14.860Z,38.55
2023-10-07T10:12:58.548Z,37.87
2023-10-07T10:15:39.356Z,38.71
2023-10-07T10:18:28.766Z,38.68
2023-10-07T10:21:06.834Z,38.52
2023-10-07T10:23:34.739Z,38.30
2023-10-07T10:26:16.098Z,38.01
2023-10-07T10:28:57.319Z,37.84
2023-10-07T10:31:26.052Z,37.76
2023-10-07T10:33:53.923Z,37.52
2023-10-07T10:36:24.574Z,37.40
2023-10-07T10:38:54.797Z,37.16
2023-10-07T10:41:29.115Z,37.33
2023-10-07T10:44:11.829Z,36.85
2023-10-07T10:46:49.818Z,36.85
2023-10-07T10:49:19.521Z,36.80
2023-10-07T10:51:56.006Z,36.87
2023-10-07T10:54:24.618Z,37.24
2023-10-07T10:57:01.801Z,36.87
2023-10-07T10:59:38.466Z,37.18
2023-10-07T11:02:06.964Z,37.10
2023-10-07T11:04:34.747Z,37.13
2023-10-07T11:07:02.442Z,37.30
2023-10-07T11:09:37.624Z,37.36
2023-10-07T11:12:10.348Z,37.51
2023-10-07T11:14:39.808Z,37.35
2023-10-07T11:17:10.313Z,37.46
2023-10-07T11:19:48.665Z,37.73
2023-10-07T11:22:20.722Z,37.58
2023-10-07T11:24:52.128Z,37.73
2023-10-07T11:27:25.150Z,37.66
2023-10-07T11:29:59.698Z,38.05
2023-10-07T11:32:31.704Z,37.54
2023-10-07T11:35:00.901Z,37.91
2023-10-07T11:37:29.590Z,37.91
2023-10-07T11:40:01.568Z,38.01
2023-10-07T11:42:30.426Z,38.10
2023-10-07T11:44:58.563Z,38.21
2023-10-07T11:47:26.604Z,38.38
2023-10-07T11:49:56.039Z,38.35
2023-10-07T11:52:25.125Z,38.74
2023-10-07T11:54:52.780Z,38.33
2023-10-07T11:57:20.448Z,38.61
2023-10-07T11:59:47.858Z,38.64
2023-10-07T12:02:18.581Z,38.40
2023-10-07T12:04:48.870Z,39.10
2023-10-07T12:07:17.848Z,38.60
2023-10-07T12:09:48.409Z,38.67
2023-10-07T12:12:18.501Z,38.48
2023-10-07T12:14:49.117Z,38.61
2023-10-07T12:17:17.997Z,38.56
2023-10-07T12:19:46.004Z,39.13
2023-10-07T12:22:14.708Z,38.60
2023-10-07T12:24:45.600Z,38.55
2023-10-07T12:27:14.174Z,35.31
2023-10-07T12:29:41.620Z,35.34
2023-10-07T12:32:11.535Z,35.89
2023-10-07T12:34:48.974Z,35.90
2023-10-07T12:37:16.921Z,36.96
2023-10-07T12:39:50.403Z,36.47
2023-10-07T12:42:19.672Z,35.68
2023-10-07T12:44:47.562Z,36.20
2023-10-07T12:47:15.866Z,35.48
2023-10-07T12:49:46.903Z,35.40
2023-10-07T12:52:17.343Z,35.72
2023-10-07T12:54:47.650Z,35.49
2023-10-07T12:57:16.872Z,35.07
2023-10-07T12:59:45.457Z,35.51
2023-10-07T13:02:18.546Z,35.45
2023-10-07T13:04:50.434Z,35.43
2023-10-07T13:07:19.138Z,35.68
2023-10-07T13:09:49.844Z,35.62
2023-10-07T13:12:23.460Z,36.08
2023-10-07T13:14:52.329Z,35.81
2023-10-07T13:17:21.898Z,35.92
2023-10-07T13:19:53.197Z,35.82
2023-10-07T13:22:20.817Z,35.52
2023-10-07T13:24:48.254Z,35.86
2023-10-07T13:27:21.292Z,36.12
2023-10-07T13:29:49.276Z,36.14
2023-10-07T13:32:19.183Z,36.50
2023-10-07T13:34:47.736Z,36.56
2023-10-07T13:37:15.224Z,36.17
2023-10-07T13:39:42.976Z,35.45
2023-10-07T13:42:14.489Z,35.76
2023-10-07T13:44:44.329Z,35.48
2023-10-07T13:47:12.651Z,35.79
2023-10-07T13:49:43.102Z,35.91
2023-10-07T13:52:10.982Z,35.82
2023-10-07T13:54:48.434Z,35.52
2023-10-07T13:57:20.578Z,35.77
2023-10-07T13:59:48.290Z,35.11
2023-10-07T14:02:21.178Z,35.40
2023-10-07T14:04:54.395Z,36.05
2023-10-07T14:07:22.035Z,35.36
2023-10-07T14:09:50.586Z,35.64
2023-10-07T14:12:18.363Z,35.65
2023-10-07T14:14:53.640Z,35.78
2023-10-07T14:17:21.849Z,35.82
2023-10-07T14:19:50.004Z,35.71
2023-10-07T14:22:20.334Z,35.88
2023-10-07T14:24:47.798Z,35.87
2023-10-07T14:27:18.352Z,36.00
2023-10-07T14:29:48.116Z,36.12
2023-10-07T14:32:15.657Z,35.86
2023-10-07T14:34:43.384Z,36.32
2023-10-07T14:37:11.717Z,35.92
2023-10-07T14:39:54.447Z,35.78
2023-10-07T14:42:27.808Z,35.77
2023-10-07T14:44:56.628Z,35.96
2023-10-07T14:47:25.639Z,36.00
2023-10-07T14:49:54.815Z,35.90
2023-10-07T14:52:23.763Z,35.97
2023-10-07T14:54:51.315Z,36.31
2023-10-07T14:57:22.487Z,36.43
2023-10-07T14:59:52.293Z,35.99
2023-10-07T15:02:20.003Z,36.29
2023-10-07T15:04:54.650Z,35.98
2023-10-07T15:07:22.121Z,36.30
2023-10-07T15:09:51.759Z,36.13
2023-10-07T15:12:19.249Z,35.81
2023-10-07T15:14:47.180Z,35.80
2023-10-07T15:17:16.982Z,36.02
2023-10-07T15:19:53.619Z,35.56
2023-10-07T15:22:21.728Z,35.49
2023-10-07T15:24:50.573Z,35.22
2023-10-07T15:27:18.253Z,35.40
2023-10-07T15:29:45.724Z,35.59
2023-10-07T15:32:14.603Z,35.75
2023-10-07T15:34:43.351Z,35.32
2023-10-07T15:37:11.043Z,35.20
2023-10-07T15:39:38.396Z,35.25
2023-10-07T15:42:10.177Z,35.08
2023-10-07T15:44:37.667Z,34.84
2023-10-07T15:47:05.656Z,35.28
2023-10-07T15:49:33.217Z,35.17
2023-10-07T15:52:03.353Z,35.13
2023-10-07T15:54:30.783Z,34.83
2023-10-07T15:56:58.521Z,34.54
2023-10-07T15:59:26.083Z,34.53
2023-10-07T16:01:53.628Z,34.54
2023-10-07T16:04:22.291Z,34.46
2023-10-07T16:06:50.024Z,34.51
2023-10-07T16:09:20.189Z,34.43
2023-10-07T16:11:50.258Z,34.74
2023-10-07T16:14:19.986Z,34.88
2023-10-07T16:16:49.716Z,34.72
2023-10-07T16:19:17.427Z,35.02
2023-10-07T16:21:45.122Z,35.14
2023-10-07T16:24:13.253Z,35.54
2023-10-07T16:26:47.014Z,35.75
2023-10-07T16:29:16.869Z,36.01
2023-10-07T16:31:44.683Z,36.15
2023-10-07T16:34:13.008Z,36.17
2023-10-07T16:36:40.591Z,36.49
2023-10-07T16:39:10.212Z,36.67
2023-10-07T16:41:38.498Z,38.41
2023-10-07T16:44:06.684Z,39.50
2023-10-07T16:46:35.423Z,39.68
2023-10-07T16:49:02.914Z,39.45
2023-10-07T16:51:30.472Z,38.97
2023-10-07T16:53:57.833Z,39.24
2023-10-07T16:56:27.975Z,39.19
2023-10-07T16:58:55.601Z,39.40
2023-10-07T17:01:23.238Z,39.30
2023-10-07T17:03:51.199Z,39.40
2023-10-07T17:06:18.731Z,39.35
2023-10-07T17:08:47.826Z,38.98
2023-10-07T17:11:18.984Z,39.19
2023-10-07T17:13:49.150Z,38.80
2023-10-07T17:16:18.294Z,38.71
2023-10-07T17:18:46.668Z,38.92
2023-10-07T17:21:14.980Z,38.46
2023-10-07T17:23:42.428Z,39.07
2023-10-07T17:26:10.226Z,39.08
2023-10-07T17:28:37.646Z,39.19
2023-10-07T17:31:10.249Z,38.65
2023-10-07T17:33:41.719Z,38.61
2023-10-07T17:36:09.740Z,38.51
2023-10-07T17:38:37.492Z,38.59
2023-10-07T17:41:38.726Z,39.25
2023-10-07T17:44:07.426Z,39.47
2023-10-07T17:46:35.526Z,39.59
2023-10-07T17:49:04.096Z,39.33
2023-10-07T17:51:32.090Z,39.19
2023-10-07T17:53:59.696Z,39.17
2023-10-07T17:56:27.331Z,39.61
2023-10-07T17:58:55.060Z,38.97
2023-10-07T18:01:22.560Z,39.36
2023-10-07T18:03:55.100Z,39.43
2023-10-07T18:06:25.267Z,39.45
2023-10-07T18:08:52.800Z,39.40
2023-10-07T18:11:20.455Z,39.49
2023-10-07T18:13:48.176Z,39.49
2023-10-07T18:16:16.068Z,39.51
2023-10-07T18:18:43.630Z,39.26
2023-10-07T18:21:11.451Z,39.05
2023-10-07T18:23:39.776Z,38.74
2023-10-07T18:26:08.187Z,39.69
2023-10-07T18:29:05.203Z,38.69
2023-10-07T18:31:39.433Z,39.01
2023-10-07T18:34:12.470Z,38.76
2023-10-07T18:36:46.996Z,38.86
2023-10-07T18:39:17.578Z,38.85
2023-10-07T18:41:46.805Z,39.40
2023-10-07T18:44:14.674Z,38.42
2023-10-07T18:46:44.169Z,38.86
2023-10-07T18:49:13.073Z,38.50
2023-10-07T18:51:40.888Z,38.75
2023-10-07T18:54:08.347Z,38.22
2023-10-07T18:56:36.127Z,38.11
2023-10-07T18:59:06.195Z,38.33
2023-10-07T19:01:34.474Z,38.30
2023-10-07T19:04:06.506Z,38.90
2023-10-07T19:06:36.618Z,39.35
2023-10-07T19:09:05.067Z,39.05
2023-10-07T19:11:36.614Z,38.93
2023-10-07T19:14:05.835Z,38.95
2023-10-07T19:16:35.979Z,39.41
2023-10-07T19:19:06.951Z,39.19
2023-10-07T19:21:35.416Z,39.29
2023-10-07T19:24:02.817Z,39.53
2023-10-07T19:26:30.380Z,39.02
2023-10-07T19:28:57.795Z,39.12
2023-10-07T19:31:25.528Z,38.83
2023-10-07T19:33:57.955Z,38.93
2023-10-07T19:36:27.777Z,39.36
2023-10-07T19:38:55.237Z,39.25
2023-10-07T19:41:23.023Z,39.30
2023-10-07T19:43:57.341Z,38.44
2023-10-07T19:46:25.241Z,38.90
2023-10-07T19:48:52.886Z,38.27
2023-10-07T19:51:20.748Z,38.26
2023-10-07T19:53:51.257Z,39.09
2023-10-07T19:56:19.358Z,38.82
2023-10-07T19:58:46.762Z,38.65
2023-10-07T20:01:14.362Z,38.77
2023-10-07T20:03:42.065Z,38.86
2023-10-07T20:06:10.980Z,39.30
2023-10-07T20:08:41.337Z,38.51
2023-10-07T20:11:10.805Z,39.11
2023-10-07T20:13:38.887Z,39.11
2023-10-07T20:16:08.351Z,38.79
2023-10-07T20:18:35.783Z,38.52
2023-10-07T20:21:03.521Z,38.99
2023-10-07T20:23:30.988Z,38.55
2023-10-07T20:26:03.190Z,38.82
2023-10-07T20:28:30.726Z,39.07
2023-10-07T20:30:58.332Z,38.94
2023-10-07T20:33:26.086Z,38.82
2023-10-07T20:35:53.682Z,38.49
2023-10-07T20:38:21.785Z,38.35
2023-10-07T20:40:58.520Z,37.96
2023-10-07T20:43:28.809Z,38.28
2023-10-07T20:46:01.115Z,37.91
2023-10-07T20:48:33.469Z,38.35
2023-10-07T20:51:10.667Z,38.18
2023-10-07T20:53:40.612Z,38.13
2023-10-07T20:56:11.154Z,38.03
2023-10-07T20:58:39.272Z,37.10
2023-10-07T21:01:21.363Z,37.45
2023-10-07T21:03:51.082Z,37.68
2023-10-07T21:06:21.528Z,37.76
2023-10-07T21:08:51.009Z,37.94
2023-10-07T21:11:24.922Z,38.11
2023-10-07T21:13:57.233Z,37.35
2023-10-07T21:16:25.606Z,36.81
2023-10-07T21:18:55.629Z,37.60
2023-10-07T21:21:24.247Z,37.42
2023-10-07T21:23:51.977Z,37.00
2023-10-07T21:26:24.548Z,37.17
2023-10-07T21:28:56.930Z,37.81
2023-10-07T21:31:32.132Z,37.66
2023-10-07T21:33:59.586Z,37.80
2023-10-07T21:36:27.561Z,37.75
2023-10-07T21:38:56.045Z,37.51
2023-10-07T21:41:23.641Z,37.11
2023-10-07T21:43:51.198Z,37.57
2023-10-07T21:46:20.744Z,36.83
2023-10-07T21:48:48.576Z,37.06
2023-10-07T21:51:20.513Z,37.53
2023-10-07T21:56:15.867Z,37.50
2023-10-07T21:58:43.938Z,37.14
2023-10-07T22:01:19.098Z,37.21
2023-10-07T22:03:49.520Z,36.71
2023-10-07T22:06:19.208Z,36.29
2023-10-07T22:08:48.432Z,36.49
2023-10-07T22:11:17.041Z,36.88
2023-10-07T22:13:44.782Z,37.19
2023-10-07T22:16:13.310Z,37.28
2023-10-07T22:18:40.961Z,36.38
2023-10-07T22:21:11.962Z,36.88
2023-10-07T22:23:39.711Z,36.71
2023-10-07T22:26:12.976Z,36.99
2023-10-07T22:28:40.898Z,36.74
2023-10-07T22:31:08.697Z,36.71
2023-10-07T22:33:36.577Z,37.17
2023-10-07T22:36:19.167Z,36.30
2023-10-07T22:38:54.977Z,36.00
2023-10-07T22:41:38.831Z,36.03
2023-10-07T22:44:22.699Z,36.99
2023-10-07T22:47:09.060Z,36.58
2023-10-07T22:49:37.178Z,36.83
2023-10-07T22:52:09.585Z,36.94
2023-10-07T22:54:50.968Z,37.01
2023-10-07T22:57:18.369Z,36.51
2023-10-07T22:59:48.745Z,37.16
2023-10-07T23:02:30.584Z,37.07
2023-10-07T23:04:58.893Z,36.12
2023-10-07T23:07:26.489Z,36.33
2023-10-07T23:10:00.040Z,36.76
2023-10-07T23:12:40.049Z,36.23
2023-10-07T23:15:16.059Z,36.64
2023-10-07T23:17:44.007Z,36.67
2023-10-07T23:20:21.133Z,36.94
2023-10-07T23:22:48.766Z,36.69
2023-10-07T23:25:19.843Z,36.83
2023-10-07T23:27:51.044Z,36.63
2023-10-07T23:30:29.140Z,36.60
2023-10-07T23:33:00.282Z,36.22
2023-10-07T23:35:33.921Z,36.44
2023-10-07T23:38:19.332Z,36.95
2023-10-07T23:40:53.220Z,37.00
2023-10-07T23:43:21.576Z,37.03
2023-10-07T23:45:52.779Z,36.77
2023-10-07T23:48:20.998Z,36.69
2023-10-07T23:50:58.136Z,36.35
2023-10-07T23:53:31.910Z,36.42
2023-10-07T23:56:07.420Z,36.33
2023-10-07T23:58:44.265Z,35.82
